ADDS METAR Data INFO
IDs: Format: Raw Decoded Include TAF

Data at: 0213 UTC 17 Aug 2018

PAIG 170156Z AUTO VRB03KT 8SM SCT030 BKN043 OVC070 16/11 A2998 RMK AO2 SLP162 T01560111 $
PAIG 170056Z AUTO 02005KT 10SM SCT075 14/11 A2997 RMK AO2 SLP161 T01440111 $
PAIG 162356Z AUTO 02004KT 10SM BKN065 14/11 A2998 RMK AO2 SLP163 60000 T01390106 10144 20100 58003 $
PAIG 162256Z AUTO 06006KT 10SM CLR 14/11 A2999 RMK AO2 SLP166 T01440106 $
PAIG 162156Z AUTO 03006KT 10SM SCT070 12/11 A2999 RMK AO2 SLP166 T01220106 $
PAIG 162056Z AUTO 03005KT 10SM SCT036 OVC070 13/10 A2999 RMK AO2 SLP167 60000 T01280100 58000 $
PAIG 161956Z AUTO 03004KT 10SM OVC034 12/10 A2999 RMK AO2 SLP168 T01220100 $
PAIG 161913Z AUTO 00000KT 10SM SCT005 OVC030 12/10 A2999 RMK AO2 $
PAIG 161856Z AUTO 09003KT 10SM OVC005 11/11 A2999 RMK AO2 RAB17E36 SLP168 P0000 T01110106 $
PAIG 161840Z AUTO 00000KT 10SM OVC005 11/11 A2999 RMK AO2 RAB17E36 P0000 $
PAIG 161820Z AUTO 00000KT 10SM -RA BKN003 BKN041 OVC050 11/11 A2999 RMK AO2 RAB17 P0000 $
PAIG 161803Z AUTO 00000KT 10SM FEW003 BKN043 OVC050 10/10 A2999 RMK AO2 $
PAIG 161756Z AUTO 00000KT 10SM OVC050 10/10 A2999 RMK AO2 RAE09B33E56 SLP167 P0001 60003 T01000100 10100 20078 51003 $
PAIG 161656Z AUTO 18003KT 10SM -RA OVC040 09/09 A2999 RMK AO2 RAB03 SLP167 P0002 T00890089 $
PAIG 161556Z AUTO 00000KT 10SM BKN042 OVC050 08/08 A2999 RMK AO2 SLP166 T00830083 $
PAIG 161456Z AUTO 15003KT 10SM FEW030 OVC065 08/08 A2998 RMK AO2 SLP165 T00780078 52003 $
PAIG 161356Z AUTO 17004KT 10SM OVC048 08/08 A2998 RMK AO2 SLP164 T00830083 $
PAIG 161256Z AUTO 17004KT 10SM OVC050 08/08 A2998 RMK AO2 SLP163 T00830083 $
PAIG 161156Z AUTO 18005KT 10SM OVC050 08/08 A2998 RMK AO2 SLP162 T00830083 10106 20083 51001 $
PAIG 161056Z AUTO 18005KT 10SM OVC060 08/08 A2997 RMK AO2 SLP162 T00830083 $
PAIG 160956Z AUTO 16005KT 10SM OVC050 09/09 A2998 RMK AO2 SLP162 T00890089 $
PAIG 160856Z AUTO 17004KT 10SM BKN055 09/09 A2997 RMK AO2 SLP161 T00890089 401330067 51007 $
PAIG 160756Z AUTO 16004KT 10SM OVC060 09/09 A2997 RMK AO2 SLP160 T00940094 $
PAIG 160656Z AUTO 17004KT 10SM SCT060 SCT120 09/09 A2996 RMK AO2 SLP157 T00940094 $
PAIG 160556Z AUTO 18004KT 10SM CLR 11/10 A2995 RMK AO2 SLP154 60000 T01060100 10128 20106 53004 $
PAIG 160456Z AUTO 21004KT 10SM OVC110 12/10 A2995 RMK AO2 SLP152 T01170100 $
PAIG 160356Z AUTO 22006KT 10SM OVC075 13/10 A2994 RMK AO2 SLP150 T01280100 $
PAIG 160256Z AUTO 21005KT 10SM SCT050 OVC065 13/10 A2994 RMK AO2 SLP151 60000 T01280100 56007 $
PAIG 160156Z AUTO 20005KT 10SM OVC055 13/09 A2995 RMK AO2 RAB24E36 SLP152 P0000 T01280094 $
PAIG 160056Z AUTO 23006KT 10SM SCT055 OVC070 13/09 A2995 RMK AO2 RAE28 SLP153 P0000 T01280094 $
PAIG 152356Z AUTO 29004KT 10SM -RA SCT036 OVC065 12/09 A2996 RMK AO2 RAB04E15B47 SLP158 P0000 60000 T01220094 10133 20106 50000 $
PAIG 152310Z AUTO VRB04KT 10SM -RA FEW009 SCT017 OVC036 12/10 A2996 RMK AO2 RAB04 P0000 $
PAIG 152256Z AUTO VRB03KT 10SM FEW011 BKN017 OVC038 12/11 A2996 RMK AO2 SLP158 T01170106 $
PAIG 152216Z AUTO 00000KT 10SM BKN015 BKN022 OVC065 13/10 A2996 RMK AO2 $
PAIG 152156Z AUTO VRB03KT 10SM BKN012 OVC065 12/10 A2996 RMK AO2 SLP158 T01220100 $
PAIG 152111Z AUTO 26003KT 10SM SCT010 BKN014 OVC019 11/10 A2996 RMK AO2 $
PAIG 152056Z AUTO 28004KT 10SM BKN009 BKN014 OVC044 11/10 A2996 RMK AO2 RAE19 CIG 006V012 SLP158 P0000 60000 T01110100 50000 $
PAIG 152049Z AUTO 23004KT 10SM BKN009 BKN036 OVC044 11/10 A2996 RMK AO2 RAE19 CIG 006V014 P0000 $
PAIG 152040Z AUTO 22004KT 10SM SCT007 BKN028 OVC044 11/10 A2996 RMK AO2 RAE19 P0000 $
PAIG 152032Z AUTO 19004KT 10SM FEW007 SCT028 OVC040 11/09 A2996 RMK AO2 RAE19 P0000 $
PAIG 152018Z AUTO 18006KT 10SM -RA SCT007 BKN028 OVC038 11/10 A2997 RMK AO2 P0000 $
PAIG 151956Z AUTO 21006KT 4SM -RA BR BKN007 OVC017 11/10 A2997 RMK AO2 RAB06E24B56 CIG 005V010 SLP159 P0000 T01060100 $
PAIG 151856Z AUTO 17005KT 10SM OVC009 11/10 A2996 RMK AO2 CIG 007V012 SLP158 T01110100 $
PAIG 151845Z AUTO 20004KT 9SM BKN009 BKN017 OVC024 11/10 A2997 RMK AO2 CIG 008V012 $
PAIG 151822Z AUTO 19004KT 10SM SCT009 BKN012 OVC055 11/09 A2996 RMK AO2 $
PAIG 151756Z AUTO 19003KT 10SM OVC009 11/10 A2996 RMK AO2 SLP157 T01060100 10106 20072 53002 $
PAIG 151735Z AUTO 20003KT 10SM BKN009 OVC024 10/09 A2996 RMK AO2 CIG 007V012 $
PAIG 151656Z AUTO 18004KT 10SM FEW011 OVC022 10/09 A2996 RMK AO2 SLP156 T01000094 $
PAIG 151612Z AUTO 17003KT 10SM BKN024 OVC055 09/09 A2996 RMK AO2 $
PAIG 151556Z AUTO 18004KT 10SM SCT026 OVC055 09/09 A2996 RMK AO2 SLP155 T00890089 $
PAIG 151456Z AUTO 19003KT 10SM OVC022 08/08 A2995 RMK AO2 SLP155 T00830083 58003 $